Archival Weather

Chicago O'Hare International

Chicago, Illinois (KORD)

Report from: Tuesday, December 6, 2022 3:51 PM CST
Current time: Friday, June 21, 2024 3:23 AM CDT

Current weather – Weather history – Daily summaries
Weather forecast

Present weatherMist
Temperature5.6°C (42.1°F)
Wind chill2.3°C (36.1°F)
Dew point2.2°C (36.0°F)
Winds 9 kts (4.6 m/s, 10.4 mph) North-Northeast (30°)
Visibility5 mi. (8 km)
Clouds Ceiling: Overcast 1,000 ft. (305 m)
Altimeter30.00 in.Hg (1016 mB)
Relative humidity79 %
Density altitude-1,132 ft. (-345 m)
Sea-level pressure101.6 kPa (1016 mB, 30.01 in.Hg)
Remarks Automated weather observing station with precipitation discriminator
Flight conditions Marginal Visual Meteorological Conditions
Raw dataKORD 062151Z 03009KT 5SM BR OVC010 06/02 A3000 RMK AO2 SLP163 T00560022
An error has occurred. This application may no longer respond until reloaded. Reload 🗙